sensor_id;sensor_type;location;lat;lon;timestamp;temperature;humidity
59505;DHT22;45321;53.200;5.814;2023-05-15T00:02:13;13.70;75.80
59505;DHT22;45321;53.200;5.814;2023-05-15T00:04:39;13.70;75.80
59505;DHT22;45321;53.200;5.814;2023-05-15T00:07:05;13.70;75.60
59505;DHT22;45321;53.200;5.814;2023-05-15T00:09:31;13.70;76.10
59505;DHT22;45321;53.200;5.814;2023-05-15T00:11:57;13.60;76.10
59505;DHT22;45321;53.200;5.814;2023-05-15T00:14:23;13.60;76.00
59505;DHT22;45321;53.200;5.814;2023-05-15T00:16:49;13.70;75.70
59505;DHT22;45321;53.200;5.814;2023-05-15T00:19:15;13.70;76.30
59505;DHT22;45321;53.200;5.814;2023-05-15T00:21:41;13.70;76.00
59505;DHT22;45321;53.200;5.814;2023-05-15T00:24:07;13.60;76.20
59505;DHT22;45321;53.200;5.814;2023-05-15T00:26:33;13.60;76.30
59505;DHT22;45321;53.200;5.814;2023-05-15T00:28:59;13.60;76.40
59505;DHT22;45321;53.200;5.814;2023-05-15T00:31:24;13.60;76.40
59505;DHT22;45321;53.200;5.814;2023-05-15T00:33:50;13.60;76.40
59505;DHT22;45321;53.200;5.814;2023-05-15T00:36:16;13.60;76.30
59505;DHT22;45321;53.200;5.814;2023-05-15T00:38:42;13.50;76.20
59505;DHT22;45321;53.200;5.814;2023-05-15T00:41:09;13.50;76.50
59505;DHT22;45321;53.200;5.814;2023-05-15T00:43:38;13.50;76.50
59505;DHT22;45321;53.200;5.814;2023-05-15T00:46:06;13.40;76.60
59505;DHT22;45321;53.200;5.814;2023-05-15T00:48:32;13.30;76.50
59505;DHT22;45321;53.200;5.814;2023-05-15T00:50:58;13.30;76.30
59505;DHT22;45321;53.200;5.814;2023-05-15T00:53:26;13.30;76.40
59505;DHT22;45321;53.200;5.814;2023-05-15T00:55:56;13.30;76.60
59505;DHT22;45321;53.200;5.814;2023-05-15T00:58:22;13.20;76.40
59505;DHT22;45321;53.200;5.814;2023-05-15T01:00:49;13.20;76.50
59505;DHT22;45321;53.200;5.814;2023-05-15T01:03:15;13.10;76.30
59505;DHT22;45321;53.200;5.814;2023-05-15T01:05:41;13.10;76.60
59505;DHT22;45321;53.200;5.814;2023-05-15T01:08:18;13.10;77.00
59505;DHT22;45321;53.200;5.814;2023-05-15T01:10:47;13.10;76.60
59505;DHT22;45321;53.200;5.814;2023-05-15T01:13:14;13.10;76.60
59505;DHT22;45321;53.200;5.814;2023-05-15T01:15:40;13.20;76.30
59505;DHT22;45321;53.200;5.814;2023-05-15T01:18:06;13.20;77.00
59505;DHT22;45321;53.200;5.814;2023-05-15T01:26:49;13.20;77.10
59505;DHT22;45321;53.200;5.814;2023-05-15T01:29:43;13.20;77.30
59505;DHT22;45321;53.200;5.814;2023-05-15T01:32:11;13.20;77.60
59505;DHT22;45321;53.200;5.814;2023-05-15T01:34:51;13.20;77.00
59505;DHT22;45321;53.200;5.814;2023-05-15T01:37:24;13.20;77.50
59505;DHT22;45321;53.200;5.814;2023-05-15T01:39:54;13.30;77.40
59505;DHT22;45321;53.200;5.814;2023-05-15T01:42:21;13.30;77.90
59505;DHT22;45321;53.200;5.814;2023-05-15T01:44:54;13.20;77.70
59505;DHT22;45321;53.200;5.814;2023-05-15T01:47:25;13.30;77.70
59505;DHT22;45321;53.200;5.814;2023-05-15T01:49:53;13.30;77.60
59505;DHT22;45321;53.200;5.814;2023-05-15T01:52:25;13.30;78.20
59505;DHT22;45321;53.200;5.814;2023-05-15T01:54:54;13.30;77.90
59505;DHT22;45321;53.200;5.814;2023-05-15T01:57:21;13.30;77.60
59505;DHT22;45321;53.200;5.814;2023-05-15T01:59:49;13.30;77.70
59505;DHT22;45321;53.200;5.814;2023-05-15T02:02:15;13.30;77.20
59505;DHT22;45321;53.200;5.814;2023-05-15T02:04:43;13.30;77.00
59505;DHT22;45321;53.200;5.814;2023-05-15T02:07:09;13.30;77.50
59505;DHT22;45321;53.200;5.814;2023-05-15T02:09:36;13.30;77.40
59505;DHT22;45321;53.200;5.814;2023-05-15T02:12:02;13.30;77.30
59505;DHT22;45321;53.200;5.814;2023-05-15T02:14:28;13.30;77.40
59505;DHT22;45321;53.200;5.814;2023-05-15T02:16:55;13.30;77.50
59505;DHT22;45321;53.200;5.814;2023-05-15T02:19:21;13.30;77.60
59505;DHT22;45321;53.200;5.814;2023-05-15T02:21:47;13.30;77.80
59505;DHT22;45321;53.200;5.814;2023-05-15T02:24:13;13.20;77.90
59505;DHT22;45321;53.200;5.814;2023-05-15T02:26:59;13.20;77.50
59505;DHT22;45321;53.200;5.814;2023-05-15T02:32:28;13.20;77.00
59505;DHT22;45321;53.200;5.814;2023-05-15T02:37:55;13.10;77.30
59505;DHT22;45321;53.200;5.814;2023-05-15T02:40:25;13.10;77.30
59505;DHT22;45321;53.200;5.814;2023-05-15T02:42:52;13.00;77.10
59505;DHT22;45321;53.200;5.814;2023-05-15T02:45:19;13.00;77.20
59505;DHT22;45321;53.200;5.814;2023-05-15T02:47:46;12.90;77.30
59505;DHT22;45321;53.200;5.814;2023-05-15T02:50:15;12.90;77.70
59505;DHT22;45321;53.200;5.814;2023-05-15T02:52:41;12.90;77.40
59505;DHT22;45321;53.200;5.814;2023-05-15T02:55:07;12.80;77.80
59505;DHT22;45321;53.200;5.814;2023-05-15T02:57:33;12.80;77.50
59505;DHT22;45321;53.200;5.814;2023-05-15T02:59:59;12.70;77.50
59505;DHT22;45321;53.200;5.814;2023-05-15T03:02:25;12.80;77.60
59505;DHT22;45321;53.200;5.814;2023-05-15T03:04:51;12.70;77.90
59505;DHT22;45321;53.200;5.814;2023-05-15T03:07:16;12.60;77.70
59505;DHT22;45321;53.200;5.814;2023-05-15T03:09:42;12.60;77.70
59505;DHT22;45321;53.200;5.814;2023-05-15T03:12:08;12.60;77.50
59505;DHT22;45321;53.200;5.814;2023-05-15T03:14:34;12.60;77.80
59505;DHT22;45321;53.200;5.814;2023-05-15T03:17:00;12.60;77.60
59505;DHT22;45321;53.200;5.814;2023-05-15T03:19:26;12.50;77.70
59505;DHT22;45321;53.200;5.814;2023-05-15T03:21:51;12.50;78.00
59505;DHT22;45321;53.200;5.814;2023-05-15T03:24:17;12.50;78.30
59505;DHT22;45321;53.200;5.814;2023-05-15T03:26:43;12.50;77.90
59505;DHT22;45321;53.200;5.814;2023-05-15T03:29:09;12.50;78.20
59505;DHT22;45321;53.200;5.814;2023-05-15T03:31:35;12.50;78.30
59505;DHT22;45321;53.200;5.814;2023-05-15T03:34:01;12.50;78.30
59505;DHT22;45321;53.200;5.814;2023-05-15T03:36:27;12.50;78.00
59505;DHT22;45321;53.200;5.814;2023-05-15T03:38:52;12.50;78.10
59505;DHT22;45321;53.200;5.814;2023-05-15T03:41:18;12.40;78.50
59505;DHT22;45321;53.200;5.814;2023-05-15T03:43:43;12.40;78.40
59505;DHT22;45321;53.200;5.814;2023-05-15T03:46:10;12.30;78.30
59505;DHT22;45321;53.200;5.814;2023-05-15T03:48:35;12.30;78.40
59505;DHT22;45321;53.200;5.814;2023-05-15T03:51:01;12.30;78.40
59505;DHT22;45321;53.200;5.814;2023-05-15T03:53:27;12.30;78.60
59505;DHT22;45321;53.200;5.814;2023-05-15T03:55:53;12.30;78.60
59505;DHT22;45321;53.200;5.814;2023-05-15T03:58:18;12.30;78.60
59505;DHT22;45321;53.200;5.814;2023-05-15T04:00:44;12.20;78.80
59505;DHT22;45321;53.200;5.814;2023-05-15T04:03:10;12.20;79.00
59505;DHT22;45321;53.200;5.814;2023-05-15T04:05:36;12.20;78.60
59505;DHT22;45321;53.200;5.814;2023-05-15T04:08:01;12.20;79.20
59505;DHT22;45321;53.200;5.814;2023-05-15T04:10:27;12.20;79.20
59505;DHT22;45321;53.200;5.814;2023-05-15T04:12:53;12.20;79.20
59505;DHT22;45321;53.200;5.814;2023-05-15T04:15:24;12.20;79.20
59505;DHT22;45321;53.200;5.814;2023-05-15T04:17:52;12.20;79.20
59505;DHT22;45321;53.200;5.814;2023-05-15T04:20:22;12.20;79.50
59505;DHT22;45321;53.200;5.814;2023-05-15T04:22:48;12.20;79.30
59505;DHT22;45321;53.200;5.814;2023-05-15T04:25:15;12.20;79.30
59505;DHT22;45321;53.200;5.814;2023-05-15T04:27:41;12.20;79.60
59505;DHT22;45321;53.200;5.814;2023-05-15T04:30:08;12.20;79.50
59505;DHT22;45321;53.200;5.814;2023-05-15T04:32:34;12.30;79.50
59505;DHT22;45321;53.200;5.814;2023-05-15T04:35:01;12.30;79.00
59505;DHT22;45321;53.200;5.814;2023-05-15T04:37:27;12.30;79.40
59505;DHT22;45321;53.200;5.814;2023-05-15T04:39:53;12.30;79.40
59505;DHT22;45321;53.200;5.814;2023-05-15T04:42:19;12.30;79.40
59505;DHT22;45321;53.200;5.814;2023-05-15T04:44:45;12.40;79.50
59505;DHT22;45321;53.200;5.814;2023-05-15T04:47:11;12.30;79.40
59505;DHT22;45321;53.200;5.814;2023-05-15T04:49:39;12.40;79.50
59505;DHT22;45321;53.200;5.814;2023-05-15T04:52:05;12.40;79.20
59505;DHT22;45321;53.200;5.814;2023-05-15T04:54:31;12.50;79.40
59505;DHT22;45321;53.200;5.814;2023-05-15T04:56:57;12.50;79.80
59505;DHT22;45321;53.200;5.814;2023-05-15T04:59:22;12.60;79.80
59505;DHT22;45321;53.200;5.814;2023-05-15T05:01:50;12.60;79.80
59505;DHT22;45321;53.200;5.814;2023-05-15T05:04:16;12.60;79.50
59505;DHT22;45321;53.200;5.814;2023-05-15T05:06:48;12.70;79.70
59505;DHT22;45321;53.200;5.814;2023-05-15T05:09:14;12.70;79.70
59505;DHT22;45321;53.200;5.814;2023-05-15T05:11:40;12.80;79.70
59505;DHT22;45321;53.200;5.814;2023-05-15T05:14:09;12.80;79.60
59505;DHT22;45321;53.200;5.814;2023-05-15T05:16:36;12.90;79.40
59505;DHT22;45321;53.200;5.814;2023-05-15T05:19:01;12.90;79.00
59505;DHT22;45321;53.200;5.814;2023-05-15T05:21:27;13.00;79.10
59505;DHT22;45321;53.200;5.814;2023-05-15T05:23:53;13.00;79.70
59505;DHT22;45321;53.200;5.814;2023-05-15T05:26:19;13.00;78.90
59505;DHT22;45321;53.200;5.814;2023-05-15T05:28:45;13.00;79.10
59505;DHT22;45321;53.200;5.814;2023-05-15T05:31:11;13.10;78.80
59505;DHT22;45321;53.200;5.814;2023-05-15T05:33:36;13.20;78.20
59505;DHT22;45321;53.200;5.814;2023-05-15T05:36:02;13.20;78.50
59505;DHT22;45321;53.200;5.814;2023-05-15T05:38:28;13.20;78.10
59505;DHT22;45321;53.200;5.814;2023-05-15T05:40:54;13.30;78.30
59505;DHT22;45321;53.200;5.814;2023-05-15T05:43:19;13.30;78.50
59505;DHT22;45321;53.200;5.814;2023-05-15T05:45:46;13.30;78.40
59505;DHT22;45321;53.200;5.814;2023-05-15T05:48:12;13.30;78.40
59505;DHT22;45321;53.200;5.814;2023-05-15T05:50:40;13.30;78.20
59505;DHT22;45321;53.200;5.814;2023-05-15T05:53:08;13.30;77.50
59505;DHT22;45321;53.200;5.814;2023-05-15T05:55:33;13.40;78.50
59505;DHT22;45321;53.200;5.814;2023-05-15T05:57:59;13.50;78.40
59505;DHT22;45321;53.200;5.814;2023-05-15T06:00:25;13.50;78.70
59505;DHT22;45321;53.200;5.814;2023-05-15T06:02:58;13.60;78.10
59505;DHT22;45321;53.200;5.814;2023-05-15T06:05:25;13.70;77.40
59505;DHT22;45321;53.200;5.814;2023-05-15T06:07:52;13.70;77.50
59505;DHT22;45321;53.200;5.814;2023-05-15T06:10:18;13.70;77.20
59505;DHT22;45321;53.200;5.814;2023-05-15T06:12:44;13.80;76.90
59505;DHT22;45321;53.200;5.814;2023-05-15T06:15:11;13.80;76.70
59505;DHT22;45321;53.200;5.814;2023-05-15T06:17:37;13.80;76.40
59505;DHT22;45321;53.200;5.814;2023-05-15T06:20:03;13.80;75.70
59505;DHT22;45321;53.200;5.814;2023-05-15T06:22:36;13.80;76.10
59505;DHT22;45321;53.200;5.814;2023-05-15T06:25:04;13.90;75.50
59505;DHT22;45321;53.200;5.814;2023-05-15T06:27:31;13.90;75.30
59505;DHT22;45321;53.200;5.814;2023-05-15T06:29:56;13.90;75.20
59505;DHT22;45321;53.200;5.814;2023-05-15T06:32:22;13.90;75.20
59505;DHT22;45321;53.200;5.814;2023-05-15T06:34:48;14.00;75.00
59505;DHT22;45321;53.200;5.814;2023-05-15T06:37:13;14.00;74.60
59505;DHT22;45321;53.200;5.814;2023-05-15T06:39:39;14.00;74.30
59505;DHT22;45321;53.200;5.814;2023-05-15T06:42:05;14.10;74.20
59505;DHT22;45321;53.200;5.814;2023-05-15T06:44:31;14.00;74.00
59505;DHT22;45321;53.200;5.814;2023-05-15T06:46:57;14.00;73.80
59505;DHT22;45321;53.200;5.814;2023-05-15T06:49:24;14.00;73.70
59505;DHT22;45321;53.200;5.814;2023-05-15T06:51:50;14.00;73.60
59505;DHT22;45321;53.200;5.814;2023-05-15T06:54:16;14.00;73.60
59505;DHT22;45321;53.200;5.814;2023-05-15T06:56:42;14.00;73.80
59505;DHT22;45321;53.200;5.814;2023-05-15T06:59:08;14.00;73.60
59505;DHT22;45321;53.200;5.814;2023-05-15T07:01:33;14.00;73.80
59505;DHT22;45321;53.200;5.814;2023-05-15T07:03:59;14.00;73.90
59505;DHT22;45321;53.200;5.814;2023-05-15T07:06:25;14.00;74.20
59505;DHT22;45321;53.200;5.814;2023-05-15T07:08:51;14.00;74.10
59505;DHT22;45321;53.200;5.814;2023-05-15T07:11:17;14.20;74.20
59505;DHT22;45321;53.200;5.814;2023-05-15T07:13:42;14.20;73.70
59505;DHT22;45321;53.200;5.814;2023-05-15T07:16:08;14.30;73.40
59505;DHT22;45321;53.200;5.814;2023-05-15T07:18:34;14.30;73.20
59505;DHT22;45321;53.200;5.814;2023-05-15T07:21:00;14.50;72.60
59505;DHT22;45321;53.200;5.814;2023-05-15T07:23:26;14.40;71.90
59505;DHT22;45321;53.200;5.814;2023-05-15T07:25:55;14.50;72.30
59505;DHT22;45321;53.200;5.814;2023-05-15T07:28:21;14.60;72.00
59505;DHT22;45321;53.200;5.814;2023-05-15T07:30:46;14.70;71.90
59505;DHT22;45321;53.200;5.814;2023-05-15T07:33:12;14.80;71.50
59505;DHT22;45321;53.200;5.814;2023-05-15T07:35:38;15.00;71.20
59505;DHT22;45321;53.200;5.814;2023-05-15T07:38:03;15.20;71.10
59505;DHT22;45321;53.200;5.814;2023-05-15T07:40:29;15.20;70.50
59505;DHT22;45321;53.200;5.814;2023-05-15T07:42:56;15.30;69.90
59505;DHT22;45321;53.200;5.814;2023-05-15T07:45:21;15.30;69.90
59505;DHT22;45321;53.200;5.814;2023-05-15T07:47:48;15.30;69.80
59505;DHT22;45321;53.200;5.814;2023-05-15T07:50:14;15.50;70.00
59505;DHT22;45321;53.200;5.814;2023-05-15T07:52:41;15.70;70.00
59505;DHT22;45321;53.200;5.814;2023-05-15T07:55:08;15.80;69.60
59505;DHT22;45321;53.200;5.814;2023-05-15T07:57:34;15.90;68.90
59505;DHT22;45321;53.200;5.814;2023-05-15T08:00:00;16.10;68.60
59505;DHT22;45321;53.200;5.814;2023-05-15T08:02:32;16.30;68.60
59505;DHT22;45321;53.200;5.814;2023-05-15T08:04:57;16.50;66.70
59505;DHT22;45321;53.200;5.814;2023-05-15T08:07:23;16.70;67.00
59505;DHT22;45321;53.200;5.814;2023-05-15T08:09:49;16.70;65.70
59505;DHT22;45321;53.200;5.814;2023-05-15T08:12:20;16.60;66.10
59505;DHT22;45321;53.200;5.814;2023-05-15T08:14:49;16.50;66.70
59505;DHT22;45321;53.200;5.814;2023-05-15T08:17:16;16.50;66.70
59505;DHT22;45321;53.200;5.814;2023-05-15T08:19:42;16.50;66.30
59505;DHT22;45321;53.200;5.814;2023-05-15T08:22:07;16.50;66.00
59505;DHT22;45321;53.200;5.814;2023-05-15T08:24:33;16.50;66.00
59505;DHT22;45321;53.200;5.814;2023-05-15T08:26:59;16.50;66.50
59505;DHT22;45321;53.200;5.814;2023-05-15T08:29:25;16.50;66.20
59505;DHT22;45321;53.200;5.814;2023-05-15T08:31:51;16.60;65.90
59505;DHT22;45321;53.200;5.814;2023-05-15T08:34:17;16.60;66.20
59505;DHT22;45321;53.200;5.814;2023-05-15T08:36:43;16.60;65.40
59505;DHT22;45321;53.200;5.814;2023-05-15T08:39:09;16.70;66.60
59505;DHT22;45321;53.200;5.814;2023-05-15T08:44:20;16.90;66.20
59505;DHT22;45321;53.200;5.814;2023-05-15T08:46:46;16.90;66.00
59505;DHT22;45321;53.200;5.814;2023-05-15T08:52:06;17.00;65.40
59505;DHT22;45321;53.200;5.814;2023-05-15T08:54:32;17.00;65.60
59505;DHT22;45321;53.200;5.814;2023-05-15T08:56:59;16.90;65.20
59505;DHT22;45321;53.200;5.814;2023-05-15T08:59:26;17.00;65.30
59505;DHT22;45321;53.200;5.814;2023-05-15T09:01:52;17.00;65.20
59505;DHT22;45321;53.200;5.814;2023-05-15T09:04:19;17.00;65.70
59505;DHT22;45321;53.200;5.814;2023-05-15T09:06:46;17.00;65.40
59505;DHT22;45321;53.200;5.814;2023-05-15T09:09:12;17.00;64.90
59505;DHT22;45321;53.200;5.814;2023-05-15T09:11:43;17.00;65.30
59505;DHT22;45321;53.200;5.814;2023-05-15T09:14:09;17.00;65.00
59505;DHT22;45321;53.200;5.814;2023-05-15T09:16:36;17.10;65.30
59505;DHT22;45321;53.200;5.814;2023-05-15T09:19:02;17.20;65.00
59505;DHT22;45321;53.200;5.814;2023-05-15T09:21:29;17.20;64.60
59505;DHT22;45321;53.200;5.814;2023-05-15T09:24:20;17.10;64.00
59505;DHT22;45321;53.200;5.814;2023-05-15T09:27:05;17.00;64.30
59505;DHT22;45321;53.200;5.814;2023-05-15T09:29:33;17.00;64.70
59505;DHT22;45321;53.200;5.814;2023-05-15T09:32:17;17.00;64.70
59505;DHT22;45321;53.200;5.814;2023-05-15T09:34:43;17.00;64.80
59505;DHT22;45321;53.200;5.814;2023-05-15T09:37:12;17.00;64.40
59505;DHT22;45321;53.200;5.814;2023-05-15T09:39:51;17.00;64.30
59505;DHT22;45321;53.200;5.814;2023-05-15T09:42:17;17.10;63.80
59505;DHT22;45321;53.200;5.814;2023-05-15T09:44:44;17.20;63.80
59505;DHT22;45321;53.200;5.814;2023-05-15T09:47:13;17.30;64.10
59505;DHT22;45321;53.200;5.814;2023-05-15T09:49:42;17.30;63.30
59505;DHT22;45321;53.200;5.814;2023-05-15T09:52:08;17.30;63.90
59505;DHT22;45321;53.200;5.814;2023-05-15T09:54:35;17.40;63.30
59505;DHT22;45321;53.200;5.814;2023-05-15T09:57:12;17.40;63.40
59505;DHT22;45321;53.200;5.814;2023-05-15T09:59:47;17.30;63.70
59505;DHT22;45321;53.200;5.814;2023-05-15T10:02:23;17.40;63.70
59505;DHT22;45321;53.200;5.814;2023-05-15T10:04:55;17.50;63.60
59505;DHT22;45321;53.200;5.814;2023-05-15T10:07:34;17.40;63.50
59505;DHT22;45321;53.200;5.814;2023-05-15T10:10:02;17.40;63.20
59505;DHT22;45321;53.200;5.814;2023-05-15T10:12:30;17.40;63.80
59505;DHT22;45321;53.200;5.814;2023-05-15T10:14:57;17.50;63.10
59505;DHT22;45321;53.200;5.814;2023-05-15T10:17:25;17.50;63.30
59505;DHT22;45321;53.200;5.814;2023-05-15T10:19:52;17.60;61.70
59505;DHT22;45321;53.200;5.814;2023-05-15T10:22:22;17.60;62.40
59505;DHT22;45321;53.200;5.814;2023-05-15T10:24:51;17.70;63.50
59505;DHT22;45321;53.200;5.814;2023-05-15T10:27:22;17.70;62.20
59505;DHT22;45321;53.200;5.814;2023-05-15T10:29:49;17.70;62.50
59505;DHT22;45321;53.200;5.814;2023-05-15T10:32:16;17.70;62.60
59505;DHT22;45321;53.200;5.814;2023-05-15T10:34:42;17.70;61.90
59505;DHT22;45321;53.200;5.814;2023-05-15T10:37:09;17.80;62.30
59505;DHT22;45321;53.200;5.814;2023-05-15T10:39:36;17.80;61.70
59505;DHT22;45321;53.200;5.814;2023-05-15T10:42:06;17.80;62.20
59505;DHT22;45321;53.200;5.814;2023-05-15T10:44:32;17.80;61.80
59505;DHT22;45321;53.200;5.814;2023-05-15T10:46:58;17.80;61.50
59505;DHT22;45321;53.200;5.814;2023-05-15T10:49:24;17.80;61.80
59505;DHT22;45321;53.200;5.814;2023-05-15T10:51:51;17.80;62.20
59505;DHT22;45321;53.200;5.814;2023-05-15T10:54:17;17.80;62.00
59505;DHT22;45321;53.200;5.814;2023-05-15T10:56:43;17.80;61.90
59505;DHT22;45321;53.200;5.814;2023-05-15T10:59:10;17.70;61.90
59505;DHT22;45321;53.200;5.814;2023-05-15T11:01:37;17.50;62.00
59505;DHT22;45321;53.200;5.814;2023-05-15T11:04:14;17.40;62.50
59505;DHT22;45321;53.200;5.814;2023-05-15T11:06:45;17.50;62.20
59505;DHT22;45321;53.200;5.814;2023-05-15T11:12:05;17.50;63.00
59505;DHT22;45321;53.200;5.814;2023-05-15T11:14:37;17.40;62.70
59505;DHT22;45321;53.200;5.814;2023-05-15T11:17:11;17.30;62.80
59505;DHT22;45321;53.200;5.814;2023-05-15T11:22:17;17.20;62.70
59505;DHT22;45321;53.200;5.814;2023-05-15T11:25:05;17.20;62.70
59505;DHT22;45321;53.200;5.814;2023-05-15T11:27:37;17.20;62.80
59505;DHT22;45321;53.200;5.814;2023-05-15T11:30:06;17.30;62.70
59505;DHT22;45321;53.200;5.814;2023-05-15T11:35:20;17.40;62.10
59505;DHT22;45321;53.200;5.814;2023-05-15T11:38:03;17.40;62.40
59505;DHT22;45321;53.200;5.814;2023-05-15T11:40:31;17.50;62.20
59505;DHT22;45321;53.200;5.814;2023-05-15T11:43:33;17.40;62.20
59505;DHT22;45321;53.200;5.814;2023-05-15T11:46:05;17.50;61.80
59505;DHT22;45321;53.200;5.814;2023-05-15T11:48:36;17.50;62.30
59505;DHT22;45321;53.200;5.814;2023-05-15T11:51:04;17.60;62.30
59505;DHT22;45321;53.200;5.814;2023-05-15T11:53:31;17.60;61.90
59505;DHT22;45321;53.200;5.814;2023-05-15T11:55:57;17.50;62.10
59505;DHT22;45321;53.200;5.814;2023-05-15T11:58:23;17.50;62.00
59505;DHT22;45321;53.200;5.814;2023-05-15T12:00:51;17.50;62.50
59505;DHT22;45321;53.200;5.814;2023-05-15T12:03:32;17.50;61.90
59505;DHT22;45321;53.200;5.814;2023-05-15T12:06:00;17.50;61.90
59505;DHT22;45321;53.200;5.814;2023-05-15T12:08:36;17.50;62.00
59505;DHT22;45321;53.200;5.814;2023-05-15T12:11:06;17.40;62.20
59505;DHT22;45321;53.200;5.814;2023-05-15T12:13:33;17.30;62.20
59505;DHT22;45321;53.200;5.814;2023-05-15T12:16:00;17.30;62.50
59505;DHT22;45321;53.200;5.814;2023-05-15T12:18:26;17.20;62.30
59505;DHT22;45321;53.200;5.814;2023-05-15T12:20:52;17.20;62.80
59505;DHT22;45321;53.200;5.814;2023-05-15T12:23:21;17.10;62.70
59505;DHT22;45321;53.200;5.814;2023-05-15T12:25:49;17.10;62.80
59505;DHT22;45321;53.200;5.814;2023-05-15T12:28:16;17.10;63.00
59505;DHT22;45321;53.200;5.814;2023-05-15T12:30:42;17.10;63.00
59505;DHT22;45321;53.200;5.814;2023-05-15T12:33:09;17.20;63.00
59505;DHT22;45321;53.200;5.814;2023-05-15T12:35:36;17.20;63.30
59505;DHT22;45321;53.200;5.814;2023-05-15T12:38:06;17.20;63.00
59505;DHT22;45321;53.200;5.814;2023-05-15T12:40:35;17.20;63.30
59505;DHT22;45321;53.200;5.814;2023-05-15T12:43:06;17.20;63.50
59505;DHT22;45321;53.200;5.814;2023-05-15T12:45:32;17.20;63.20
59505;DHT22;45321;53.200;5.814;2023-05-15T12:48:00;17.20;63.40
59505;DHT22;45321;53.200;5.814;2023-05-15T12:50:26;17.10;63.30
59505;DHT22;45321;53.200;5.814;2023-05-15T12:52:55;17.20;63.60
59505;DHT22;45321;53.200;5.814;2023-05-15T12:55:39;17.20;63.20
59505;DHT22;45321;53.200;5.814;2023-05-15T12:58:07;17.20;63.80
59505;DHT22;45321;53.200;5.814;2023-05-15T13:00:35;17.00;64.00
59505;DHT22;45321;53.200;5.814;2023-05-15T13:03:03;17.00;64.50
59505;DHT22;45321;53.200;5.814;2023-05-15T13:05:33;17.00;64.60
59505;DHT22;45321;53.200;5.814;2023-05-15T13:08:03;17.00;63.90
59505;DHT22;45321;53.200;5.814;2023-05-15T13:10:31;17.00;64.20
59505;DHT22;45321;53.200;5.814;2023-05-15T13:12:57;17.00;63.80
59505;DHT22;45321;53.200;5.814;2023-05-15T13:15:31;17.00;64.00
59505;DHT22;45321;53.200;5.814;2023-05-15T13:18:05;17.10;64.10
59505;DHT22;45321;53.200;5.814;2023-05-15T13:20:34;17.10;64.70
59505;DHT22;45321;53.200;5.814;2023-05-15T13:23:00;17.10;65.00
59505;DHT22;45321;53.200;5.814;2023-05-15T13:25:26;17.20;64.30
59505;DHT22;45321;53.200;5.814;2023-05-15T13:27:55;17.20;64.60
59505;DHT22;45321;53.200;5.814;2023-05-15T13:30:21;17.20;64.40
59505;DHT22;45321;53.200;5.814;2023-05-15T13:32:47;17.30;65.00
59505;DHT22;45321;53.200;5.814;2023-05-15T13:35:13;17.20;65.10
59505;DHT22;45321;53.200;5.814;2023-05-15T13:37:39;17.20;64.80
59505;DHT22;45321;53.200;5.814;2023-05-15T13:40:07;17.20;64.40
59505;DHT22;45321;53.200;5.814;2023-05-15T13:42:35;17.30;63.80
59505;DHT22;45321;53.200;5.814;2023-05-15T13:45:05;17.30;64.20
59505;DHT22;45321;53.200;5.814;2023-05-15T13:47:31;17.40;63.60
59505;DHT22;45321;53.200;5.814;2023-05-15T13:49:57;17.40;64.20
59505;DHT22;45321;53.200;5.814;2023-05-15T13:52:23;17.50;64.00
59505;DHT22;45321;53.200;5.814;2023-05-15T13:54:48;17.50;63.50
59505;DHT22;45321;53.200;5.814;2023-05-15T13:57:14;17.60;62.80
59505;DHT22;45321;53.200;5.814;2023-05-15T13:59:40;17.50;63.00
59505;DHT22;45321;53.200;5.814;2023-05-15T14:02:05;17.40;62.50
59505;DHT22;45321;53.200;5.814;2023-05-15T14:04:31;17.40;63.00
59505;DHT22;45321;53.200;5.814;2023-05-15T14:06:57;17.30;62.90
59505;DHT22;45321;53.200;5.814;2023-05-15T14:09:23;17.20;63.00
59505;DHT22;45321;53.200;5.814;2023-05-15T14:11:49;17.20;63.60
59505;DHT22;45321;53.200;5.814;2023-05-15T14:14:14;17.10;63.40
59505;DHT22;45321;53.200;5.814;2023-05-15T14:16:40;17.00;63.30
59505;DHT22;45321;53.200;5.814;2023-05-15T14:19:06;17.00;63.50
59505;DHT22;45321;53.200;5.814;2023-05-15T14:21:31;16.90;63.90
59505;DHT22;45321;53.200;5.814;2023-05-15T14:23:57;16.90;64.70
59505;DHT22;45321;53.200;5.814;2023-05-15T14:26:23;16.90;63.90
59505;DHT22;45321;53.200;5.814;2023-05-15T14:28:48;16.90;64.10
59505;DHT22;45321;53.200;5.814;2023-05-15T14:31:15;16.80;64.70
59505;DHT22;45321;53.200;5.814;2023-05-15T14:33:41;16.90;64.80
59505;DHT22;45321;53.200;5.814;2023-05-15T14:36:06;16.90;64.60
59505;DHT22;45321;53.200;5.814;2023-05-15T14:38:32;16.80;64.90
59505;DHT22;45321;53.200;5.814;2023-05-15T14:40:58;16.80;64.80
59505;DHT22;45321;53.200;5.814;2023-05-15T14:43:24;16.80;64.80
59505;DHT22;45321;53.200;5.814;2023-05-15T14:45:50;16.80;64.60
59505;DHT22;45321;53.200;5.814;2023-05-15T14:48:16;16.90;64.60
59505;DHT22;45321;53.200;5.814;2023-05-15T14:50:42;17.00;64.20
59505;DHT22;45321;53.200;5.814;2023-05-15T14:53:08;17.10;63.70
59505;DHT22;45321;53.200;5.814;2023-05-15T14:55:33;17.20;63.60
59505;DHT22;45321;53.200;5.814;2023-05-15T14:57:59;17.10;63.70
59505;DHT22;45321;53.200;5.814;2023-05-15T15:00:25;16.90;63.80
59505;DHT22;45321;53.200;5.814;2023-05-15T15:02:50;16.80;64.10
59505;DHT22;45321;53.200;5.814;2023-05-15T15:05:16;16.80;64.10
59505;DHT22;45321;53.200;5.814;2023-05-15T15:10:31;16.80;63.80
59505;DHT22;45321;53.200;5.814;2023-05-15T15:12:58;16.80;64.20
59505;DHT22;45321;53.200;5.814;2023-05-15T15:15:24;16.80;64.20
59505;DHT22;45321;53.200;5.814;2023-05-15T15:17:50;16.70;64.80
59505;DHT22;45321;53.200;5.814;2023-05-15T15:20:18;16.80;64.10
59505;DHT22;45321;53.200;5.814;2023-05-15T15:22:45;16.70;64.30
59505;DHT22;45321;53.200;5.814;2023-05-15T15:25:11;16.70;63.80
59505;DHT22;45321;53.200;5.814;2023-05-15T15:27:38;16.70;63.90
59505;DHT22;45321;53.200;5.814;2023-05-15T15:30:05;16.70;63.90
59505;DHT22;45321;53.200;5.814;2023-05-15T15:32:31;16.70;64.00
59505;DHT22;45321;53.200;5.814;2023-05-15T15:34:57;16.70;64.10
59505;DHT22;45321;53.200;5.814;2023-05-15T15:37:23;16.70;63.70
59505;DHT22;45321;53.200;5.814;2023-05-15T15:39:49;16.60;63.70
59505;DHT22;45321;53.200;5.814;2023-05-15T15:42:15;16.50;63.80
59505;DHT22;45321;53.200;5.814;2023-05-15T15:44:41;16.50;64.30
59505;DHT22;45321;53.200;5.814;2023-05-15T15:47:07;16.60;63.90
59505;DHT22;45321;53.200;5.814;2023-05-15T15:49:33;16.50;63.80
59505;DHT22;45321;53.200;5.814;2023-05-15T15:51:59;16.50;64.00
59505;DHT22;45321;53.200;5.814;2023-05-15T15:54:24;16.40;64.40
59505;DHT22;45321;53.200;5.814;2023-05-15T15:56:50;16.30;64.30
59505;DHT22;45321;53.200;5.814;2023-05-15T15:59:16;16.30;65.10
59505;DHT22;45321;53.200;5.814;2023-05-15T16:01:42;16.30;64.80